Time;durP1;ratioP1;P1;durP2;ratioP2;P2;SDS_P1;SDS_P2;PMS_P1;PMS_P2;Temp;Humidity;BMP_temperature;BMP_pressure;BME280_temperature;BME280_humidity;BME280_pressure;Samples;Min_cycle;Max_cycle;Signal;HPM_P1;HPM_P2
2021/10/17 00:00:35;;;;;;;31.42;15.43;;;;;;;;;;5049954;28;20460;-66
2021/10/17 00:03:01;;;;;;;34.72;16.10;;;;;;;;;;5050318;28;20029;-65
2021/10/17 00:05:29;;;;;;;42.22;17.50;;;;;;;;;;5052742;28;20487;-65
2021/10/17 00:07:55;;;;;;;39.42;18.67;;;;;;;;;;5051962;28;20539;-65
2021/10/17 00:10:24;;;;;;;40.83;19.23;;;;;;;;;;5049889;28;20027;-65
2021/10/17 00:12:51;;;;;;;37.97;16.40;;;;;;;;;;5049402;28;20064;-65
2021/10/17 00:15:18;;;;;;;32.90;15.23;;;;;;;;;;5049680;28;20460;-65
2021/10/17 00:17:44;;;;;;;36.78;15.18;;;;;;;;;;5050941;28;20033;-65
2021/10/17 00:20:11;;;;;;;29.55;14.10;;;;;;;;;;5052431;28;20060;-65
2021/10/17 00:22:38;;;;;;;31.52;15.40;;;;;;;;;;5049445;28;20025;-65
2021/10/17 00:25:05;;;;;;;30.58;14.80;;;;;;;;;;5049811;28;20032;-66
2021/10/17 00:27:31;;;;;;;28.30;14.25;;;;;;;;;;5049661;28;20029;-66
2021/10/17 00:29:57;;;;;;;28.40;12.88;;;;;;;;;;5048800;28;20026;-66
2021/10/17 00:32:23;;;;;;;28.50;14.27;;;;;;;;;;5052640;28;20052;-65
2021/10/17 00:34:49;;;;;;;28.27;13.40;;;;;;;;;;5050031;28;20033;-65
2021/10/17 00:37:17;;;;;;;29.27;11.75;;;;;;;;;;5050949;28;20033;-66
2021/10/17 00:39:43;;;;;;;24.27;13.15;;;;;;;;;;5049315;28;20020;-65
2021/10/17 00:42:09;;;;;;;27.27;14.30;;;;;;;;;;5049408;28;20025;-66
2021/10/17 00:44:38;;;;;;;34.08;15.27;;;;;;;;;;5051315;28;20061;-66
2021/10/17 00:47:04;;;;;;;29.10;13.63;;;;;;;;;;5051063;28;20481;-66
2021/10/17 00:49:30;;;;;;;31.63;13.82;;;;;;;;;;5048005;28;20453;-66
2021/10/17 00:51:56;;;;;;;34.05;14.60;;;;;;;;;;5048908;28;20033;-65
2021/10/17 00:54:22;;;;;;;29.88;14.10;;;;;;;;;;5049362;28;20053;-66
2021/10/17 00:56:48;;;;;;;28.75;12.38;;;;;;;;;;5049594;28;20068;-65
2021/10/17 00:59:14;;;;;;;38.63;14.77;;;;;;;;;;5052247;28;20017;-66
2021/10/17 01:01:40;;;;;;;29.80;13.93;;;;;;;;;;5049099;28;20017;-65
2021/10/17 01:04:07;;;;;;;28.48;13.27;;;;;;;;;;5048716;28;20123;-65
2021/10/17 01:06:33;;;;;;;27.45;12.63;;;;;;;;;;5048566;28;20021;-66
2021/10/17 01:08:59;;;;;;;27.00;12.60;;;;;;;;;;5048912;28;20057;-65
2021/10/17 01:11:38;;;;;;;31.15;12.68;;;;;;;;;;5051600;28;20078;-66
2021/10/17 01:14:04;;;;;;;24.20;11.85;;;;;;;;;;5049001;28;20476;-65
2021/10/17 01:16:30;;;;;;;28.55;13.00;;;;;;;;;;5048724;28;20055;-66
2021/10/17 01:18:56;;;;;;;33.10;14.77;;;;;;;;;;5047331;28;20028;-66
2021/10/17 01:21:23;;;;;;;26.85;14.20;;;;;;;;;;5048903;28;20029;-65
2021/10/17 01:23:49;;;;;;;27.67;14.02;;;;;;;;;;5049273;28;20029;-66
2021/10/17 01:26:15;;;;;;;27.50;12.82;;;;;;;;;;5050876;28;20499;-65
2021/10/17 01:28:41;;;;;;;22.38;12.48;;;;;;;;;;5048074;28;20075;-65
2021/10/17 01:31:07;;;;;;;25.50;12.30;;;;;;;;;;5047903;28;20045;-66
2021/10/17 01:33:33;;;;;;;23.58;12.00;;;;;;;;;;5048639;28;20071;-66
2021/10/17 01:35:59;;;;;;;25.77;12.73;;;;;;;;;;5048638;28;20043;-66
2021/10/17 01:38:25;;;;;;;27.85;12.05;;;;;;;;;;5051242;28;20051;-66
2021/10/17 01:40:51;;;;;;;30.40;12.88;;;;;;;;;;5049054;28;20025;-66
2021/10/17 01:43:17;;;;;;;23.17;12.40;;;;;;;;;;5048400;28;20025;-65
2021/10/17 01:45:43;;;;;;;22.58;11.75;;;;;;;;;;5047981;28;20033;-66
2021/10/17 01:48:09;;;;;;;27.92;11.90;;;;;;;;;;5048259;28;20056;-66
2021/10/17 01:50:35;;;;;;;26.33;11.80;;;;;;;;;;5050761;28;20031;-66
2021/10/17 01:53:01;;;;;;;28.27;11.48;;;;;;;;;;5049195;28;20086;-66
2021/10/17 01:55:27;;;;;;;25.20;11.45;;;;;;;;;;5048025;28;20540;-65
2021/10/17 01:57:53;;;;;;;24.60;11.48;;;;;;;;;;5046833;28;20052;-67
2021/10/17 02:00:18;;;;;;;21.85;11.50;;;;;;;;;;5047192;28;20060;-66
2021/10/17 02:02:44;;;;;;;22.75;11.23;;;;;;;;;;5049374;28;20101;-66
2021/10/17 02:05:11;;;;;;;25.75;11.98;;;;;;;;;;5050058;28;20028;-65
2021/10/17 02:07:37;;;;;;;29.08;12.43;;;;;;;;;;5048082;28;20499;-66
2021/10/17 02:10:03;;;;;;;28.92;12.52;;;;;;;;;;5048058;28;20032;-66
2021/10/17 02:12:30;;;;;;;28.85;12.93;;;;;;;;;;5047722;28;20103;-66
2021/10/17 02:14:57;;;;;;;24.35;12.20;;;;;;;;;;5047788;28;20040;-66
2021/10/17 02:17:22;;;;;;;28.08;13.68;;;;;;;;;;5051350;28;20040;-66
2021/10/17 02:19:48;;;;;;;24.25;11.25;;;;;;;;;;5049994;28;20025;-66
2021/10/17 02:22:14;;;;;;;24.92;12.55;;;;;;;;;;5047992;28;20065;-66
2021/10/17 02:24:40;;;;;;;24.55;12.13;;;;;;;;;;5047603;28;20029;-66
2021/10/17 02:27:06;;;;;;;29.38;13.13;;;;;;;;;;5047564;28;20431;-65
2021/10/17 02:29:33;;;;;;;23.05;11.80;;;;;;;;;;5050377;28;20025;-66
2021/10/17 02:31:59;;;;;;;24.00;12.07;;;;;;;;;;5048925;28;20056;-66
2021/10/17 02:34:26;;;;;;;22.80;12.10;;;;;;;;;;5047838;28;20037;-66
2021/10/17 02:36:52;;;;;;;26.30;12.23;;;;;;;;;;5049997;28;20055;-65
2021/10/17 02:39:18;;;;;;;24.85;12.00;;;;;;;;;;5050877;28;20025;-65
2021/10/17 02:41:44;;;;;;;25.48;12.43;;;;;;;;;;5053224;28;20415;-66
2021/10/17 02:44:10;;;;;;;24.85;11.20;;;;;;;;;;5054321;28;20083;-66
2021/10/17 02:46:36;;;;;;;27.48;12.68;;;;;;;;;;5051372;28;20120;-66
2021/10/17 02:49:02;;;;;;;29.92;12.80;;;;;;;;;;5049986;28;20155;-66
2021/10/17 02:51:28;;;;;;;26.80;13.07;;;;;;;;;;5050031;28;20044;-66
2021/10/17 02:53:54;;;;;;;25.00;11.73;;;;;;;;;;5050335;28;20075;-66
2021/10/17 02:56:20;;;;;;;29.17;12.55;;;;;;;;;;5055141;28;20031;-66
2021/10/17 02:58:46;;;;;;;28.98;13.55;;;;;;;;;;5051162;28;20083;-65
2021/10/17 03:01:12;;;;;;;24.23;11.18;;;;;;;;;;5050915;28;20037;-65
2021/10/17 03:03:38;;;;;;;23.27;12.05;;;;;;;;;;5051322;28;20025;-66
2021/10/17 03:06:04;;;;;;;24.35;11.82;;;;;;;;;;5051179;28;20470;-65
2021/10/17 03:08:30;;;;;;;24.40;11.98;;;;;;;;;;5053061;28;20032;-66
2021/10/17 03:10:56;;;;;;;21.75;10.40;;;;;;;;;;5052123;28;20466;-66
2021/10/17 03:13:22;;;;;;;27.98;11.52;;;;;;;;;;5051248;28;20033;-65
2021/10/17 03:15:48;;;;;;;28.02;12.65;;;;;;;;;;5051074;28;20461;-65
2021/10/17 03:18:14;;;;;;;25.73;11.48;;;;;;;;;;5050890;28;20033;-66
2021/10/17 03:20:40;;;;;;;21.92;11.60;;;;;;;;;;5052705;28;20024;-66
2021/10/17 03:23:06;;;;;;;25.65;10.18;;;;;;;;;;5052428;28;20081;-66
2021/10/17 03:25:32;;;;;;;17.90;9.57;;;;;;;;;;5050771;28;20069;-66
2021/10/17 03:27:58;;;;;;;19.85;10.88;;;;;;;;;;5051029;28;20029;-66
2021/10/17 03:30:24;;;;;;;22.05;10.63;;;;;;;;;;5050875;28;20025;-66
2021/10/17 03:32:50;;;;;;;24.13;11.48;;;;;;;;;;5050881;28;20068;-66
2021/10/17 03:35:16;;;;;;;23.02;10.82;;;;;;;;;;5053640;28;20094;-66
2021/10/17 03:37:42;;;;;;;24.45;11.25;;;;;;;;;;5050577;28;20052;-66
2021/10/17 03:40:08;;;;;;;23.33;11.88;;;;;;;;;;5050741;28;20027;-66
2021/10/17 03:42:34;;;;;;;26.58;12.20;;;;;;;;;;5050265;28;20075;-66
2021/10/17 03:45:00;;;;;;;26.42;11.07;;;;;;;;;;5050508;28;20029;-66
2021/10/17 03:47:26;;;;;;;23.40;11.50;;;;;;;;;;5052297;28;20522;-66
2021/10/17 03:49:52;;;;;;;22.35;10.90;;;;;;;;;;5050898;28;20100;-66
2021/10/17 03:52:18;;;;;;;23.85;10.85;;;;;;;;;;5050153;28;20045;-66
2021/10/17 03:54:44;;;;;;;25.65;11.50;;;;;;;;;;5050443;28;20082;-66
2021/10/17 03:57:11;;;;;;;24.35;10.82;;;;;;;;;;5050138;28;20029;-66
2021/10/17 03:59:37;;;;;;;22.45;10.88;;;;;;;;;;5052598;28;20484;-66
2021/10/17 04:02:03;;;;;;;20.02;9.90;;;;;;;;;;5051458;28;20029;-66
2021/10/17 04:04:29;;;;;;;27.50;12.10;;;;;;;;;;5049274;28;20090;-66
2021/10/17 04:06:55;;;;;;;19.83;10.57;;;;;;;;;;5049938;28;20029;-66
2021/10/17 04:09:21;;;;;;;19.92;9.38;;;;;;;;;;5050212;28;20044;-66
2021/10/17 04:11:47;;;;;;;22.45;10.77;;;;;;;;;;5050721;28;20037;-67
2021/10/17 04:14:13;;;;;;;24.65;11.18;;;;;;;;;;5052633;28;20025;-66
2021/10/17 04:16:40;;;;;;;25.95;11.70;;;;;;;;;;5049977;28;20059;-67
2021/10/17 04:19:06;;;;;;;25.92;10.40;;;;;;;;;;5049838;28;20040;-66
2021/10/17 04:21:32;;;;;;;19.45;10.38;;;;;;;;;;5049719;28;20033;-66
2021/10/17 04:23:58;;;;;;;23.15;11.20;;;;;;;;;;5049370;28;20485;-66
2021/10/17 04:26:24;;;;;;;27.48;12.35;;;;;;;;;;5052939;28;20021;-66
2021/10/17 04:28:50;;;;;;;24.05;11.50;;;;;;;;;;5050317;28;20056;-67
2021/10/17 04:31:16;;;;;;;29.52;12.75;;;;;;;;;;5049548;28;20550;-66
2021/10/17 04:33:42;;;;;;;29.45;11.60;;;;;;;;;;5049619;28;20025;-67
2021/10/17 04:36:08;;;;;;;20.83;10.55;;;;;;;;;;5049231;28;20104;-67
2021/10/17 04:38:34;;;;;;;21.25;10.50;;;;;;;;;;5051791;28;20029;-66
2021/10/17 04:41:00;;;;;;;26.17;11.13;;;;;;;;;;5050895;28;20025;-66
2021/10/17 04:43:26;;;;;;;22.55;10.63;;;;;;;;;;5049354;28;20116;-66
2021/10/17 04:45:52;;;;;;;29.38;10.73;;;;;;;;;;5049435;28;20017;-66
2021/10/17 04:48:18;;;;;;;21.15;11.23;;;;;;;;;;5049498;28;20039;-66
2021/10/17 04:50:44;;;;;;;24.20;10.68;;;;;;;;;;5049740;28;20021;-66
2021/10/17 04:53:10;;;;;;;17.40;9.75;;;;;;;;;;5051824;28;20132;-66
2021/10/17 04:55:36;;;;;;;21.63;9.68;;;;;;;;;;5047906;28;20082;-66
2021/10/17 04:58:03;;;;;;;19.02;9.45;;;;;;;;;;5048912;28;20120;-66
2021/10/17 05:00:29;;;;;;;22.05;10.60;;;;;;;;;;5048847;28;20021;-66
2021/10/17 05:02:55;;;;;;;18.83;9.98;;;;;;;;;;5049085;28;20057;-66
2021/10/17 05:05:21;;;;;;;22.05;10.38;;;;;;;;;;5052704;28;20044;-66
2021/10/17 05:07:47;;;;;;;23.92;10.20;;;;;;;;;;5047479;28;20052;-66
2021/10/17 05:10:13;;;;;;;21.67;10.05;;;;;;;;;;5048625;28;20537;-66
2021/10/17 05:12:39;;;;;;;25.98;10.80;;;;;;;;;;5048883;28;20045;-66
2021/10/17 05:15:05;;;;;;;21.85;10.93;;;;;;;;;;5049055;28;20377;-66
2021/10/17 05:17:31;;;;;;;24.73;11.05;;;;;;;;;;5050972;28;20481;-66
2021/10/17 05:19:57;;;;;;;26.65;10.80;;;;;;;;;;5050206;28;20028;-66
2021/10/17 05:22:23;;;;;;;24.95;10.38;;;;;;;;;;5048283;28;20400;-66
2021/10/17 05:24:49;;;;;;;20.33;10.57;;;;;;;;;;5048068;28;20047;-66
2021/10/17 05:27:15;;;;;;;23.70;10.68;;;;;;;;;;5048954;28;20048;-66
2021/10/17 05:29:41;;;;;;;25.20;9.50;;;;;;;;;;5050643;28;20065;-66
2021/10/17 05:32:07;;;;;;;21.67;10.18;;;;;;;;;;5050298;28;20049;-66
2021/10/17 05:34:33;;;;;;;25.38;10.98;;;;;;;;;;5048196;28;20530;-66
2021/10/17 05:36:59;;;;;;;23.13;10.90;;;;;;;;;;5048159;28;20514;-67
2021/10/17 05:39:25;;;;;;;23.83;10.90;;;;;;;;;;5048667;28;20211;-66
2021/10/17 05:41:51;;;;;;;25.15;10.77;;;;;;;;;;5032907;28;20025;-67
2021/10/17 05:44:17;;;;;;;25.55;11.32;;;;;;;;;;5051736;28;20031;-67
2021/10/17 05:46:43;;;;;;;29.35;10.35;;;;;;;;;;5047811;28;20032;-66
2021/10/17 05:49:09;;;;;;;25.52;10.35;;;;;;;;;;5049505;28;20125;-67
2021/10/17 05:51:35;;;;;;;24.70;10.25;;;;;;;;;;5048256;28;20033;-66
2021/10/17 05:54:01;;;;;;;23.88;11.13;;;;;;;;;;5048091;28;20095;-67
2021/10/17 05:56:27;;;;;;;22.02;10.70;;;;;;;;;;5051015;28;20431;-66
2021/10/17 05:58:53;;;;;;;23.90;10.15;;;;;;;;;;5049164;28;20025;-66
2021/10/17 06:01:19;;;;;;;20.08;10.13;;;;;;;;;;5047747;28;20033;-66
2021/10/17 06:03:45;;;;;;;19.05;9.15;;;;;;;;;;5048347;28;20028;-66
2021/10/17 06:06:12;;;;;;;27.27;12.93;;;;;;;;;;5047975;28;20099;-66
2021/10/17 06:08:39;;;;;;;26.27;12.55;;;;;;;;;;5050324;28;20025;-66
2021/10/17 06:11:05;;;;;;;27.55;11.80;;;;;;;;;;5050202;28;20477;-66
2021/10/17 06:13:31;;;;;;;31.35;13.00;;;;;;;;;;5052383;28;20048;-66
2021/10/17 06:15:57;;;;;;;25.52;11.77;;;;;;;;;;5052056;28;20380;-67
2021/10/17 06:18:23;;;;;;;26.38;11.48;;;;;;;;;;5051939;28;20033;-66
2021/10/17 06:20:50;;;;;;;22.00;9.60;;;;;;;;;;5052350;28;20067;-67
2021/10/17 06:23:16;;;;;;;21.92;10.02;;;;;;;;;;5055354;28;20051;-66
2021/10/17 06:25:42;;;;;;;20.67;9.50;;;;;;;;;;5052062;28;20108;-66
2021/10/17 06:28:08;;;;;;;23.20;9.98;;;;;;;;;;5053010;28;20370;-66
2021/10/17 06:30:34;;;;;;;24.33;10.95;;;;;;;;;;5051792;28;20037;-66
2021/10/17 06:33:00;;;;;;;25.02;11.73;;;;;;;;;;5051532;28;20050;-66
2021/10/17 06:35:26;;;;;;;26.42;12.52;;;;;;;;;;5054799;28;20112;-67
2021/10/17 06:37:51;;;;;;;23.48;12.38;;;;;;;;;;5052798;28;20025;-66
2021/10/17 06:40:17;;;;;;;28.02;12.00;;;;;;;;;;5051723;28;20061;-67
2021/10/17 06:42:43;;;;;;;23.65;10.77;;;;;;;;;;5051448;28;20029;-66
2021/10/17 06:45:09;;;;;;;26.02;10.73;;;;;;;;;;5051207;28;20105;-66
2021/10/17 06:47:35;;;;;;;24.98;11.38;;;;;;;;;;5054055;28;20397;-66
2021/10/17 06:50:01;;;;;;;23.58;10.90;;;;;;;;;;5052628;28;20033;-66
2021/10/17 06:52:27;;;;;;;19.48;9.88;;;;;;;;;;5051575;28;20037;-66
2021/10/17 06:54:53;;;;;;;26.92;10.63;;;;;;;;;;5051546;28;20104;-67
2021/10/17 06:57:20;;;;;;;24.40;10.82;;;;;;;;;;5051162;28;20031;-67
2021/10/17 06:59:46;;;;;;;24.92;11.70;;;;;;;;;;5052290;28;20032;-66
2021/10/17 07:02:12;;;;;;;24.50;11.75;;;;;;;;;;5052512;28;20025;-66
2021/10/17 07:04:38;;;;;;;30.83;13.60;;;;;;;;;;5051129;28;20021;-67
2021/10/17 07:07:04;;;;;;;26.77;13.80;;;;;;;;;;5052750;28;20399;-67
2021/10/17 07:09:29;;;;;;;25.33;12.00;;;;;;;;;;5051384;28;20025;-68
2021/10/17 07:11:55;;;;;;;25.33;11.25;;;;;;;;;;5051256;28;20061;-68
2021/10/17 07:14:21;;;;;;;22.48;10.27;;;;;;;;;;5054093;28;20025;-67
2021/10/17 07:16:47;;;;;;;18.60;8.65;;;;;;;;;;5051059;28;20040;-68
2021/10/17 07:19:13;;;;;;;16.90;9.07;;;;;;;;;;5050888;28;20029;-68
2021/10/17 07:21:39;;;;;;;15.00;7.32;;;;;;;;;;5050895;28;20060;-67
2021/10/17 07:24:05;;;;;;;15.88;8.93;;;;;;;;;;5051407;28;20061;-68
2021/10/17 07:26:31;;;;;;;15.35;8.18;;;;;;;;;;5052808;28;20032;-67
2021/10/17 07:28:57;;;;;;;16.27;7.80;;;;;;;;;;5051625;28;20087;-67
2021/10/17 07:31:23;;;;;;;13.77;7.80;;;;;;;;;;5050739;28;20045;-66
2021/10/17 07:33:49;;;;;;;14.75;9.13;;;;;;;;;;5050858;28;20021;-67
2021/10/17 07:36:15;;;;;;;13.00;7.65;;;;;;;;;;5050412;28;20573;-66
2021/10/17 07:38:41;;;;;;;10.90;6.35;;;;;;;;;;5052472;28;20381;-67
2021/10/17 07:41:07;;;;;;;9.23;5.80;;;;;;;;;;5052420;28;20029;-67
2021/10/17 07:43:33;;;;;;;8.63;5.45;;;;;;;;;;5050456;28;20036;-67
2021/10/17 07:46:02;;;;;;;9.82;5.65;;;;;;;;;;5051622;28;20029;-65
2021/10/17 07:48:29;;;;;;;8.18;5.00;;;;;;;;;;5049341;28;20425;-67
2021/10/17 07:50:55;;;;;;;10.48;5.53;;;;;;;;;;5050648;28;20025;-67
2021/10/17 07:53:21;;;;;;;10.60;5.80;;;;;;;;;;5053855;28;20040;-66
2021/10/17 07:55:47;;;;;;;18.95;6.90;;;;;;;;;;5050280;28;20498;-66
2021/10/17 07:58:13;;;;;;;12.77;7.63;;;;;;;;;;5049692;28;20039;-66
2021/10/17 08:00:39;;;;;;;12.60;7.10;;;;;;;;;;5049038;28;20102;-66
2021/10/17 08:03:04;;;;;;;11.38;5.75;;;;;;;;;;5050436;28;20040;-66
2021/10/17 08:05:30;;;;;;;12.23;6.75;;;;;;;;;;5052173;28;20040;-66
2021/10/17 08:07:56;;;;;;;13.65;7.28;;;;;;;;;;5051607;28;20412;-66
2021/10/17 08:10:22;;;;;;;12.60;7.88;;;;;;;;;;5050115;28;20036;-66
2021/10/17 08:12:49;;;;;;;11.35;6.40;;;;;;;;;;5049545;28;20037;-66
2021/10/17 08:15:14;;;;;;;12.15;7.07;;;;;;;;;;5050126;28;20021;-66
2021/10/17 08:17:40;;;;;;;12.80;6.65;;;;;;;;;;5051208;28;20035;-67
2021/10/17 08:20:07;;;;;;;10.35;6.15;;;;;;;;;;5052151;28;20032;-69
2021/10/17 08:22:35;;;;;;;10.50;6.60;;;;;;;;;;5050033;28;20057;-69
2021/10/17 08:25:01;;;;;;;10.00;6.53;;;;;;;;;;5049915;28;20120;-68
2021/10/17 08:27:27;;;;;;;12.93;6.93;;;;;;;;;;5048973;28;20052;-70
2021/10/17 08:29:53;;;;;;;13.18;6.47;;;;;;;;;;5050063;28;20025;-69
2021/10/17 08:32:19;;;;;;;11.77;6.65;;;;;;;;;;5053036;28;20106;-68
2021/10/17 08:34:45;;;;;;;11.82;5.95;;;;;;;;;;5049041;28;20025;-68
2021/10/17 08:37:11;;;;;;;11.35;6.20;;;;;;;;;;5049049;28;20028;-68
2021/10/17 08:39:37;;;;;;;12.70;6.57;;;;;;;;;;5048387;28;20330;-68
2021/10/17 08:42:04;;;;;;;10.23;6.18;;;;;;;;;;5049160;28;20064;-68
2021/10/17 08:44:30;;;;;;;11.27;6.35;;;;;;;;;;5051884;28;20021;-68
2021/10/17 08:46:57;;;;;;;12.90;6.25;;;;;;;;;;5050580;28;20400;-68
2021/10/17 08:49:23;;;;;;;10.73;6.47;;;;;;;;;;5048647;28;20033;-69
2021/10/17 08:51:50;;;;;;;13.18;6.60;;;;;;;;;;5049149;28;20116;-69
2021/10/17 08:54:16;;;;;;;12.23;6.03;;;;;;;;;;5049197;28;20023;-68
2021/10/17 08:56:42;;;;;;;14.77;6.30;;;;;;;;;;5050420;28;20099;-69
2021/10/17 08:59:08;;;;;;;10.55;6.15;;;;;;;;;;5051292;28;20032;-69
2021/10/17 09:01:35;;;;;;;11.52;5.70;;;;;;;;;;5048813;28;20035;-69
2021/10/17 09:04:02;;;;;;;11.02;5.95;;;;;;;;;;5048656;28;20102;-68
2021/10/17 09:06:33;;;;;;;14.43;6.38;;;;;;;;;;5048997;28;20092;-69
2021/10/17 09:09:05;;;;;;;15.32;6.50;;;;;;;;;;5049130;28;20033;-68
2021/10/17 09:11:38;;;;;;;9.88;6.10;;;;;;;;;;5051082;28;20063;-69
2021/10/17 09:14:05;;;;;;;11.95;5.72;;;;;;;;;;5050085;28;20111;-68
2021/10/17 09:16:39;;;;;;;11.93;6.17;;;;;;;;;;5048183;28;20070;-69
2021/10/17 09:19:12;;;;;;;10.63;6.00;;;;;;;;;;5048914;28;20797;-69
2021/10/17 09:21:52;;;;;;;12.75;5.90;;;;;;;;;;5048948;28;20044;-69
2021/10/17 09:24:32;;;;;;;11.68;6.38;;;;;;;;;;5048711;28;20384;-69
2021/10/17 09:27:05;;;;;;;11.65;6.32;;;;;;;;;;5033169;28;20057;-69
2021/10/17 09:29:32;;;;;;;10.75;6.60;;;;;;;;;;5050507;28;20044;-69
2021/10/17 09:31:58;;;;;;;10.98;6.15;;;;;;;;;;5049577;28;20512;-68
2021/10/17 09:34:28;;;;;;;12.98;6.30;;;;;;;;;;5048763;28;20017;-69
2021/10/17 09:37:10;;;;;;;10.52;5.78;;;;;;;;;;5047921;28;20036;-69
2021/10/17 09:39:40;;;;;;;13.75;6.10;;;;;;;;;;5048205;28;20107;-69
2021/10/17 09:42:07;;;;;;;11.63;5.47;;;;;;;;;;5049922;28;20032;-68
2021/10/17 09:44:37;;;;;;;10.07;5.43;;;;;;;;;;5050722;28;20017;-68
2021/10/17 09:47:03;;;;;;;12.35;5.55;;;;;;;;;;5049087;28;20032;-68
2021/10/17 09:49:30;;;;;;;10.32;5.50;;;;;;;;;;5048369;28;20071;-69
2021/10/17 09:52:16;;;;;;;11.20;5.93;;;;;;;;;;5047465;28;20104;-69
2021/10/17 09:54:44;;;;;;;10.02;5.75;;;;;;;;;;5047934;28;20079;-69
2021/10/17 09:57:10;;;;;;;11.73;5.15;;;;;;;;;;5048149;28;20043;-69
2021/10/17 09:59:36;;;;;;;10.10;5.03;;;;;;;;;;5050633;28;20171;-68
2021/10/17 10:02:04;;;;;;;13.30;6.13;;;;;;;;;;5049537;28;20021;-68
2021/10/17 10:04:30;;;;;;;13.45;6.50;;;;;;;;;;5048039;28;20025;-68
2021/10/17 10:06:58;;;;;;;11.43;5.90;;;;;;;;;;5047269;28;20021;-68
2021/10/17 10:09:25;;;;;;;9.68;5.63;;;;;;;;;;5046919;28;20357;-68
2021/10/17 10:11:52;;;;;;;11.10;6.00;;;;;;;;;;5032715;28;20056;-68
2021/10/17 10:14:18;;;;;;;11.93;6.05;;;;;;;;;;5051786;28;20028;-69
2021/10/17 10:16:44;;;;;;;10.95;5.50;;;;;;;;;;5047364;28;20021;-68
2021/10/17 10:19:14;;;;;;;9.38;5.40;;;;;;;;;;5047722;28;20171;-69
2021/10/17 10:21:40;;;;;;;11.82;5.47;;;;;;;;;;5049367;28;20025;-68
2021/10/17 10:24:07;;;;;;;9.57;5.03;;;;;;;;;;5047843;28;20507;-68
2021/10/17 10:26:34;;;;;;;11.57;5.05;;;;;;;;;;5050241;28;20060;-68
2021/10/17 10:29:01;;;;;;;7.80;4.38;;;;;;;;;;5049013;28;20032;-68
2021/10/17 10:31:45;;;;;;;9.85;5.18;;;;;;;;;;5046903;28;20091;-68
2021/10/17 10:34:23;;;;;;;11.10;5.20;;;;;;;;;;5047609;28;20392;-68
2021/10/17 10:36:49;;;;;;;;;;;;;;;;;;5048091;28;20021;-66
2021/10/17 10:39:16;;;;;;;8.93;5.10;;;;;;;;;;5047574;28;19915;-68
2021/10/17 10:41:47;;;;;;;9.45;4.65;;;;;;;;;;5049697;28;20025;-68
2021/10/17 10:44:20;;;;;;;8.15;4.60;;;;;;;;;;5050350;28;20025;-69
2021/10/17 10:46:47;;;;;;;9.27;4.53;;;;;;;;;;5047903;28;20040;-68
2021/10/17 10:49:32;;;;;;;7.18;4.35;;;;;;;;;;5047908;28;20484;-69
2021/10/17 10:51:58;;;;;;;7.93;4.57;;;;;;;;;;5047112;28;20435;-68
2021/10/17 10:54:24;;;;;;;8.13;4.68;;;;;;;;;;5047047;28;20029;-68
2021/10/17 10:56:52;;;;;;;9.05;4.75;;;;;;;;;;5048462;28;20037;-69
2021/10/17 10:59:23;;;;;;;10.82;4.93;;;;;;;;;;5055124;28;20028;-69
2021/10/17 11:01:52;;;;;;;8.25;4.85;;;;;;;;;;5053092;28;20032;-69
2021/10/17 11:04:37;;;;;;;10.75;4.72;;;;;;;;;;5051515;28;20037;-69
2021/10/17 11:07:21;;;;;;;10.82;4.90;;;;;;;;;;5051435;28;20480;-68
2021/10/17 11:09:48;;;;;;;10.00;4.60;;;;;;;;;;5051576;28;20033;-69
2021/10/17 11:12:33;;;;;;;8.85;4.68;;;;;;;;;;5050648;28;20476;-68
2021/10/17 11:15:00;;;;;;;9.70;5.25;;;;;;;;;;5036346;28;20029;-68
2021/10/17 11:17:28;;;;;;;10.02;5.20;;;;;;;;;;5054367;28;20029;-69
2021/10/17 11:19:54;;;;;;;;;;;;;;;;;;5052236;28;20495;-66
2021/10/17 11:22:20;;;;;;;8.82;5.00;;;;;;;;;;5050896;28;19996;-69
2021/10/17 11:24:50;;;;;;;11.48;5.50;;;;;;;;;;5050527;28;21574;-69
2021/10/17 11:27:16;;;;;;;10.98;5.68;;;;;;;;;;5051068;28;20024;-67
2021/10/17 11:29:43;;;;;;;11.13;5.80;;;;;;;;;;5052344;28;20091;-67
2021/10/17 11:32:09;;;;;;;14.45;6.03;;;;;;;;;;5052406;28;20053;-69
2021/10/17 11:34:35;;;;;;;12.05;5.80;;;;;;;;;;5050254;28;20028;-68
2021/10/17 11:37:21;;;;;;;10.23;5.25;;;;;;;;;;5050864;28;20528;-68
2021/10/17 11:40:06;;;;;;;10.40;5.63;;;;;;;;;;5050781;28;20025;-68
2021/10/17 11:42:43;;;;;;;9.98;5.07;;;;;;;;;;5049794;28;20017;-69
2021/10/17 11:45:25;;;;;;;11.98;5.57;;;;;;;;;;5050642;28;20030;-67
2021/10/17 11:47:51;;;;;;;12.55;5.75;;;;;;;;;;5051029;28;20033;-67
2021/10/17 11:50:18;;;;;;;10.85;5.50;;;;;;;;;;5052452;28;20036;-69
2021/10/17 11:52:52;;;;;;;13.70;6.13;;;;;;;;;;5050081;28;20048;-68
2021/10/17 11:55:38;;;;;;;14.82;5.20;;;;;;;;;;5049963;28;20025;-69
2021/10/17 11:58:05;;;;;;;13.70;5.22;;;;;;;;;;5050454;28;20025;-69
2021/10/17 12:00:33;;;;;;;9.43;5.28;;;;;;;;;;5050179;28;20100;-68
2021/10/17 12:02:59;;;;;;;10.80;5.43;;;;;;;;;;5050446;28;20037;-68
2021/10/17 12:05:26;;;;;;;10.98;4.95;;;;;;;;;;5052777;28;20277;-68
2021/10/17 12:07:58;;;;;;;10.48;5.43;;;;;;;;;;5050342;28;20025;-68
2021/10/17 12:10:29;;;;;;;9.05;4.72;;;;;;;;;;5049243;28;20370;-68
2021/10/17 12:12:59;;;;;;;11.35;5.03;;;;;;;;;;5049677;28;20036;-68
2021/10/17 12:15:26;;;;;;;12.60;5.22;;;;;;;;;;5049216;28;20042;-68
2021/10/17 12:17:56;;;;;;;8.77;5.20;;;;;;;;;;5034325;28;20025;-68
2021/10/17 12:20:22;;;;;;;8.40;4.43;;;;;;;;;;5049535;28;20025;-67
2021/10/17 12:22:49;;;;;;;9.55;4.70;;;;;;;;;;5049811;28;20124;-67
2021/10/17 12:25:15;;;;;;;10.00;5.10;;;;;;;;;;5049384;28;20481;-67
2021/10/17 12:27:47;;;;;;;12.55;5.22;;;;;;;;;;5049454;28;20035;-67
2021/10/17 12:30:14;;;;;;;10.25;4.80;;;;;;;;;;5049646;28;20029;-68
2021/10/17 12:32:44;;;;;;;10.20;4.87;;;;;;;;;;5051210;28;20045;-67
2021/10/17 12:35:19;;;;;;;9.20;4.60;;;;;;;;;;5051942;28;20250;-69
2021/10/17 12:37:45;;;;;;;9.13;4.75;;;;;;;;;;5049020;28;20041;-67
2021/10/17 12:40:11;;;;;;;8.40;3.90;;;;;;;;;;5049056;28;20040;-69
2021/10/17 12:42:44;;;;;;;8.20;4.53;;;;;;;;;;5049318;28;20021;-67
2021/10/17 12:45:14;;;;;;;9.32;5.00;;;;;;;;;;5048104;28;20067;-67
2021/10/17 12:47:50;;;;;;;9.70;4.45;;;;;;;;;;5049596;28;20147;-67
2021/10/17 12:50:17;;;;;;;10.38;4.82;;;;;;;;;;5051747;28;20056;-67
2021/10/17 12:52:53;;;;;;;9.43;4.00;;;;;;;;;;5048969;28;20033;-69
2021/10/17 12:55:19;;;;;;;10.90;4.53;;;;;;;;;;5049130;28;20027;-67
2021/10/17 12:58:06;;;;;;;9.50;4.40;;;;;;;;;;5048900;28;20287;-67
2021/10/17 13:00:32;;;;;;;11.43;5.00;;;;;;;;;;5048682;28;20112;-69
2021/10/17 13:03:15;;;;;;;9.38;4.57;;;;;;;;;;5048578;28;20904;-68
2021/10/17 13:05:51;;;;;;;8.02;4.28;;;;;;;;;;5050910;28;20528;-68
2021/10/17 13:08:18;;;;;;;8.15;4.70;;;;;;;;;;5052341;28;20083;-68
2021/10/17 13:10:44;;;;;;;8.88;4.63;;;;;;;;;;5048045;28;20021;-68
2021/10/17 13:13:14;;;;;;;10.10;4.63;;;;;;;;;;5048377;28;20047;-68
2021/10/17 13:15:41;;;;;;;10.45;4.93;;;;;;;;;;5048467;28;20024;-67
2021/10/17 13:18:07;;;;;;;8.98;4.63;;;;;;;;;;5048740;28;20040;-68
2021/10/17 13:20:34;;;;;;;10.57;4.85;;;;;;;;;;5050624;28;20025;-68
2021/10/17 13:23:04;;;;;;;10.25;5.00;;;;;;;;;;5049880;28;20029;-68
2021/10/17 13:25:31;;;;;;;11.15;4.65;;;;;;;;;;5048088;28;20555;-68
2021/10/17 13:27:58;;;;;;;10.00;4.80;;;;;;;;;;5048484;28;20025;-67
2021/10/17 13:30:24;;;;;;;8.90;4.80;;;;;;;;;;5048457;28;20536;-68
2021/10/17 13:32:50;;;;;;;8.52;4.38;;;;;;;;;;5048677;28;20057;-68
2021/10/17 13:35:19;;;;;;;8.80;4.45;;;;;;;;;;5050900;28;20036;-67
2021/10/17 13:37:45;;;;;;;11.52;4.70;;;;;;;;;;5049774;28;20060;-67
2021/10/17 13:40:12;;;;;;;8.10;4.13;;;;;;;;;;5048436;28;20429;-68
2021/10/17 13:42:39;;;;;;;12.50;4.95;;;;;;;;;;5048380;28;20100;-67
2021/10/17 13:45:09;;;;;;;9.18;4.57;;;;;;;;;;5048424;28;20497;-67
2021/10/17 13:47:35;;;;;;;9.07;4.40;;;;;;;;;;5050009;28;20440;-68
2021/10/17 13:50:01;;;;;;;7.95;3.95;;;;;;;;;;5049560;28;20051;-68
2021/10/17 13:52:27;;;;;;;8.20;4.32;;;;;;;;;;5048204;28;20102;-67
2021/10/17 13:54:53;;;;;;;10.85;4.68;;;;;;;;;;5048281;28;20029;-68
2021/10/17 13:57:22;;;;;;;12.75;4.35;;;;;;;;;;5048012;28;20025;-68
2021/10/17 13:59:48;;;;;;;7.72;3.97;;;;;;;;;;5048640;28;20033;-67
2021/10/17 14:02:14;;;;;;;9.77;4.38;;;;;;;;;;5051075;28;20036;-68
2021/10/17 14:04:40;;;;;;;9.63;4.45;;;;;;;;;;5046243;28;20070;-67
2021/10/17 14:07:06;;;;;;;7.90;3.67;;;;;;;;;;5046697;28;20029;-67
2021/10/17 14:09:32;;;;;;;8.07;3.85;;;;;;;;;;5045588;28;20025;-68
2021/10/17 14:11:58;;;;;;;10.88;3.92;;;;;;;;;;5047075;28;20052;-67
2021/10/17 14:14:28;;;;;;;8.50;3.65;;;;;;;;;;5051109;28;20028;-68
2021/10/17 14:16:54;;;;;;;10.50;4.93;;;;;;;;;;5047809;28;20017;-68
2021/10/17 14:19:20;;;;;;;11.13;5.63;;;;;;;;;;5047913;28;20029;-67
2021/10/17 14:21:46;;;;;;;14.32;7.05;;;;;;;;;;5047396;28;20378;-69
2021/10/17 14:24:12;;;;;;;12.48;7.50;;;;;;;;;;5046469;28;20474;-67
2021/10/17 14:26:38;;;;;;;13.98;6.32;;;;;;;;;;5049184;28;20396;-67